Time;durP1;ratioP1;P1;durP2;ratioP2;P2;SDS_P1;SDS_P2;PMS_P1;PMS_P2;Temp;Humidity;BMP_temperature;BMP_pressure;BME280_temperature;BME280_humidity;BME280_pressure;Samples;Min_cycle;Max_cycle;Signal;HPM_P1;HPM_P2
2022/06/12 00:00:53;;;;;;;7.95;2.83;;;;;;;;;;5050663;28;20032;-76
2022/06/12 00:03:25;;;;;;;6.53;2.85;;;;;;;;;;5050689;28;20623;-76
2022/06/12 00:05:54;;;;;;;7.47;2.58;;;;;;;;;;5050556;28;20520;-77
2022/06/12 00:08:21;;;;;;;5.32;2.38;;;;;;;;;;5050761;28;20025;-76
2022/06/12 00:10:50;;;;;;;7.22;2.63;;;;;;;;;;5048990;28;20033;-77
2022/06/12 00:13:24;;;;;;;4.93;2.60;;;;;;;;;;5050411;28;20039;-76
2022/06/12 00:15:49;;;;;;;7.28;2.88;;;;;;;;;;5049029;28;20478;-76
2022/06/12 00:18:15;;;;;;;6.00;2.58;;;;;;;;;;5048975;28;20063;-75
2022/06/12 00:20:48;;;;;;;5.22;2.75;;;;;;;;;;5049212;28;20795;-77
2022/06/12 00:23:19;;;;;;;7.22;2.85;;;;;;;;;;5049760;28;20029;-77
2022/06/12 00:25:50;;;;;;;4.63;2.40;;;;;;;;;;5048641;28;20037;-77
2022/06/12 00:28:24;;;;;;;7.60;2.90;;;;;;;;;;5050138;28;20052;-76
2022/06/12 00:30:56;;;;;;;4.35;2.58;;;;;;;;;;5050408;28;20370;-77
2022/06/12 00:33:27;;;;;;;6.13;2.80;;;;;;;;;;5050238;28;20040;-76
2022/06/12 00:36:00;;;;;;;8.07;2.53;;;;;;;;;;5062207;28;20401;-76
2022/06/12 00:38:29;;;;;;;6.97;2.70;;;;;;;;;;5070281;28;20028;-76
2022/06/12 00:40:55;;;;;;;6.13;2.75;;;;;;;;;;5070212;28;20393;-76
2022/06/12 00:43:38;;;;;;;6.82;2.90;;;;;;;;;;5070050;28;20027;-77
2022/06/12 00:46:07;;;;;;;3.90;2.50;;;;;;;;;;5069984;28;20095;-77
2022/06/12 00:48:36;;;;;;;7.65;2.83;;;;;;;;;;5069972;28;20392;-77
2022/06/12 00:51:22;;;;;;;6.70;2.95;;;;;;;;;;5070157;28;20033;-77
2022/06/12 00:53:58;;;;;;;7.18;3.38;;;;;;;;;;5069697;28;20107;-77
2022/06/12 00:56:32;;;;;;;5.00;2.20;;;;;;;;;;5070095;28;20028;-77
2022/06/12 00:59:57;;;;;;;4.80;2.40;;;;;;;;;;5070095;28;20568;-76
2022/06/12 01:02:23;;;;;;;7.20;3.08;;;;;;;;;;5066592;28;20035;-76
2022/06/12 01:07:37;;;;;;;6.50;2.38;;;;;;;;;;5070215;28;20481;-75
2022/06/12 01:10:11;;;;;;;5.25;2.28;;;;;;;;;;5069901;28;20043;-76
2022/06/12 01:12:44;;;;;;;6.10;2.47;;;;;;;;;;5069822;28;20385;-75
2022/06/12 01:15:15;;;;;;;4.30;2.17;;;;;;;;;;5069847;28;20039;-77
2022/06/12 01:17:41;;;;;;;5.40;2.30;;;;;;;;;;5070157;28;20044;-77
2022/06/12 01:20:12;;;;;;;7.55;2.92;;;;;;;;;;5068503;28;20059;-77
2022/06/12 01:22:57;;;;;;;;;;;;;;;;;;5070709;28;20017;-77
2022/06/12 01:25:52;;;;;;;4.05;2.25;;;;;;;;;;5069989;28;19909;-76
2022/06/12 01:28:24;;;;;;;5.95;2.42;;;;;;;;;;5069909;28;20028;-76
2022/06/12 01:31:00;;;;;;;7.75;2.40;;;;;;;;;;5070030;28;20038;-76
2022/06/12 01:33:49;;;;;;;6.82;2.72;;;;;;;;;;5068542;28;20051;-76
2022/06/12 01:36:25;;;;;;;4.97;2.05;;;;;;;;;;5069826;28;20489;-76
2022/06/12 01:39:16;;;;;;;6.50;2.30;;;;;;;;;;5068180;28;20067;-77
2022/06/12 01:41:50;;;;;;;5.05;2.20;;;;;;;;;;5069938;28;20044;-77
2022/06/12 01:44:30;;;;;;;5.35;2.35;;;;;;;;;;5064291;28;20502;-76
2022/06/12 01:47:03;;;;;;;5.45;2.30;;;;;;;;;;5047998;28;20049;-75
2022/06/12 01:49:41;;;;;;;5.43;2.05;;;;;;;;;;5047925;28;20033;-76
2022/06/12 01:52:16;;;;;;;6.43;2.10;;;;;;;;;;5048085;28;20037;-76
2022/06/12 01:54:48;;;;;;;4.78;2.30;;;;;;;;;;5049366;28;20028;-77
2022/06/12 01:57:34;;;;;;;5.65;2.20;;;;;;;;;;5049636;28;20359;-77
2022/06/12 02:00:08;;;;;;;5.22;2.20;;;;;;;;;;5049408;28;20040;-77
2022/06/12 02:02:38;;;;;;;4.80;2.15;;;;;;;;;;5047750;28;20037;-77
2022/06/12 02:05:16;;;;;;;5.55;2.15;;;;;;;;;;5049249;28;20444;-77
2022/06/12 02:07:57;;;;;;;5.47;1.98;;;;;;;;;;5051418;28;20060;-76
2022/06/12 02:10:32;;;;;;;;;;;;;;;;;;5051625;28;20048;-76
2022/06/12 02:13:14;;;;;;;4.68;2.13;;;;;;;;;;5049972;28;20518;-77
2022/06/12 02:15:52;;;;;;;5.50;2.15;;;;;;;;;;5051151;28;20390;-76
2022/06/12 02:18:39;;;;;;;5.50;2.47;;;;;;;;;;5051277;28;20029;-75
2022/06/12 02:21:18;;;;;;;5.50;2.10;;;;;;;;;;5049728;28;20533;-76
2022/06/12 02:23:59;;;;;;;5.65;2.35;;;;;;;;;;5049777;28;20688;-77
2022/06/12 02:26:32;;;;;;;5.32;2.33;;;;;;;;;;5064254;28;20482;-77
2022/06/12 02:29:02;;;;;;;4.70;2.20;;;;;;;;;;5052522;28;20033;-77
2022/06/12 02:31:34;;;;;;;6.22;2.40;;;;;;;;;;5052437;28;20044;-77
2022/06/12 02:34:09;;;;;;;5.10;2.10;;;;;;;;;;5052397;28;20466;-77
2022/06/12 02:36:39;;;;;;;6.57;2.30;;;;;;;;;;5050930;28;20478;-77
2022/06/12 02:39:22;;;;;;;6.38;2.58;;;;;;;;;;5063961;28;20037;-77
2022/06/12 02:41:51;;;;;;;5.18;2.90;;;;;;;;;;5071223;28;20036;-77
2022/06/12 02:44:45;;;;;;;6.05;2.70;;;;;;;;;;5072416;28;20024;-76
2022/06/12 02:47:18;;;;;;;7.47;2.72;;;;;;;;;;5072486;28;20493;-77
2022/06/12 02:49:47;;;;;;;6.28;2.40;;;;;;;;;;5087593;28;20036;-74
2022/06/12 02:52:20;;;;;;;6.07;2.70;;;;;;;;;;5094981;28;20025;-75
2022/06/12 02:55:14;;;;;;;5.15;2.60;;;;;;;;;;5093556;28;20020;-75
2022/06/12 02:57:46;;;;;;;6.07;2.40;;;;;;;;;;5073498;28;20021;-76
2022/06/12 03:00:14;;;;;;;5.88;2.45;;;;;;;;;;5071268;28;20041;-76
2022/06/12 03:02:53;;;;;;;5.45;2.70;;;;;;;;;;5072381;28;20039;-76
2022/06/12 03:05:21;;;;;;;6.10;2.67;;;;;;;;;;5072101;28;20032;-76
2022/06/12 03:07:54;;;;;;;7.40;2.83;;;;;;;;;;5071805;28;20397;-76
2022/06/12 03:10:23;;;;;;;6.55;3.20;;;;;;;;;;5071934;28;20025;-76
2022/06/12 03:12:52;;;;;;;8.18;2.92;;;;;;;;;;5071750;28;20509;-76
2022/06/12 03:15:41;;;;;;;5.63;2.70;;;;;;;;;;5072052;28;20028;-76
2022/06/12 03:18:12;;;;;;;8.10;2.80;;;;;;;;;;5071538;28;20036;-76
2022/06/12 03:21:06;;;;;;;5.47;2.58;;;;;;;;;;5071922;28;20031;-76
2022/06/12 03:24:12;;;;;;;6.05;2.50;;;;;;;;;;5071965;28;20025;-76
2022/06/12 03:26:44;;;;;;;7.03;3.10;;;;;;;;;;5068839;28;20063;-76
2022/06/12 03:29:51;;;;;;;4.38;2.42;;;;;;;;;;5071706;28;20036;-76
2022/06/12 03:32:36;;;;;;;5.55;2.80;;;;;;;;;;5071547;28;20029;-76
2022/06/12 03:35:54;;;;;;;5.45;2.42;;;;;;;;;;5071461;28;20024;-76
2022/06/12 03:38:29;;;;;;;6.75;2.67;;;;;;;;;;5031186;28;20040;-77
2022/06/12 03:41:00;;;;;;;7.53;2.90;;;;;;;;;;5050226;28;20401;-77
2022/06/12 03:43:34;;;;;;;8.65;3.20;;;;;;;;;;5051669;28;20035;-76
2022/06/12 03:46:33;;;;;;;8.20;2.85;;;;;;;;;;5049696;28;20029;-76
2022/06/12 03:49:13;;;;;;;5.07;2.50;;;;;;;;;;5027666;28;20040;-77
2022/06/12 03:51:49;;;;;;;6.50;2.80;;;;;;;;;;5051323;28;20375;-76
2022/06/12 03:54:25;;;;;;;8.85;2.92;;;;;;;;;;5053528;28;20435;-76
2022/06/12 03:59:53;;;;;;;6.60;2.88;;;;;;;;;;5051278;28;20029;-76
2022/06/12 04:02:24;;;;;;;6.78;2.70;;;;;;;;;;5051113;28;20028;-76
2022/06/12 04:04:51;;;;;;;7.40;2.88;;;;;;;;;;5049269;28;20041;-76
2022/06/12 04:07:20;;;;;;;5.07;2.50;;;;;;;;;;5050842;28;20024;-76
2022/06/12 04:09:50;;;;;;;7.63;2.97;;;;;;;;;;5050559;28;20025;-75
2022/06/12 04:12:26;;;;;;;5.63;2.60;;;;;;;;;;5050727;28;20485;-76
2022/06/12 04:15:02;;;;;;;5.70;2.70;;;;;;;;;;5050237;28;20033;-76
2022/06/12 04:17:28;;;;;;;11.50;3.08;;;;;;;;;;5050444;28;20029;-75
2022/06/12 04:20:03;;;;;;;5.03;2.72;;;;;;;;;;5050404;28;20021;-76
2022/06/12 04:22:56;;;;;;;5.65;2.80;;;;;;;;;;5050195;28;20025;-76
2022/06/12 04:25:37;;;;;;;6.75;2.88;;;;;;;;;;5050164;28;20033;-76
2022/06/12 04:28:06;;;;;;;7.60;2.70;;;;;;;;;;5047965;28;20044;-76
2022/06/12 04:30:36;;;;;;;7.35;2.70;;;;;;;;;;5050247;28;20543;-75
2022/06/12 04:33:20;;;;;;;8.38;3.08;;;;;;;;;;5048661;28;20037;-76
2022/06/12 04:35:56;;;;;;;6.50;2.97;;;;;;;;;;5049939;28;20520;-76
2022/06/12 04:38:23;;;;;;;6.55;2.50;;;;;;;;;;5048754;28;20049;-76
2022/06/12 04:40:50;;;;;;;5.68;2.92;;;;;;;;;;5050086;28;20047;-76
2022/06/12 04:43:16;;;;;;;7.57;2.88;;;;;;;;;;5049981;28;20036;-76
2022/06/12 04:45:43;;;;;;;5.68;2.92;;;;;;;;;;5049938;28;20051;-76
2022/06/12 04:48:15;;;;;;;5.43;2.58;;;;;;;;;;5060564;28;20416;-76
2022/06/12 04:50:42;;;;;;;6.70;2.88;;;;;;;;;;5070090;28;20035;-76
2022/06/12 04:53:08;;;;;;;5.93;2.63;;;;;;;;;;5068382;28;20037;-76
2022/06/12 04:55:33;;;;;;;5.45;2.40;;;;;;;;;;5069755;28;20051;-76
2022/06/12 04:58:00;;;;;;;8.98;3.00;;;;;;;;;;5070048;28;20386;-76
2022/06/12 05:00:27;;;;;;;9.15;2.70;;;;;;;;;;5069966;28;20029;-76
2022/06/12 05:02:53;;;;;;;7.25;2.58;;;;;;;;;;5069946;28;20024;-76
2022/06/12 05:05:19;;;;;;;6.03;3.00;;;;;;;;;;5068217;28;20494;-76
2022/06/12 05:07:45;;;;;;;5.65;2.55;;;;;;;;;;5069873;28;20024;-77
2022/06/12 05:10:14;;;;;;;7.53;2.47;;;;;;;;;;5069900;28;20028;-76
2022/06/12 05:12:40;;;;;;;10.93;2.70;;;;;;;;;;5069841;28;20040;-76
2022/06/12 05:15:07;;;;;;;5.28;2.10;;;;;;;;;;5068289;28;20517;-77
2022/06/12 05:17:33;;;;;;;5.90;2.60;;;;;;;;;;5069701;28;20041;-76
2022/06/12 05:19:59;;;;;;;7.45;2.55;;;;;;;;;;5069862;28;20059;-77
2022/06/12 05:22:25;;;;;;;6.63;2.50;;;;;;;;;;5068188;28;20036;-76
2022/06/12 05:24:52;;;;;;;6.32;2.72;;;;;;;;;;5068086;28;20543;-76
2022/06/12 05:27:23;;;;;;;8.90;3.00;;;;;;;;;;5067960;28;20045;-77
2022/06/12 05:29:50;;;;;;;7.47;2.70;;;;;;;;;;5069928;28;20036;-76
2022/06/12 05:32:18;;;;;;;7.65;2.58;;;;;;;;;;5069922;28;20033;-76
2022/06/12 05:34:45;;;;;;;8.95;2.58;;;;;;;;;;5069689;28;20399;-76
2022/06/12 05:37:12;;;;;;;6.28;2.72;;;;;;;;;;5068131;28;20421;-76
2022/06/12 05:39:38;;;;;;;7.03;2.45;;;;;;;;;;5070683;28;20485;-78
2022/06/12 05:42:14;;;;;;;8.68;2.50;;;;;;;;;;5069129;28;20028;-76
2022/06/12 05:44:40;;;;;;;7.82;2.63;;;;;;;;;;5071569;28;20036;-78
2022/06/12 05:47:06;;;;;;;7.72;2.30;;;;;;;;;;5073957;28;20028;-78
2022/06/12 05:49:32;;;;;;;6.65;2.50;;;;;;;;;;5073853;28;20397;-79
2022/06/12 05:51:59;;;;;;;6.68;2.75;;;;;;;;;;5071839;28;20040;-79
2022/06/12 05:54:25;;;;;;;6.40;2.90;;;;;;;;;;5072408;28;20516;-79
2022/06/12 05:56:51;;;;;;;6.15;2.47;;;;;;;;;;5073559;28;20099;-79
2022/06/12 05:59:18;;;;;;;8.80;2.70;;;;;;;;;;5073747;28;20484;-79
2022/06/12 06:01:44;;;;;;;6.63;2.65;;;;;;;;;;5070065;28;20538;-77
2022/06/12 06:04:10;;;;;;;9.70;2.42;;;;;;;;;;5073339;28;20017;-77
2022/06/12 06:06:54;;;;;;;6.80;2.63;;;;;;;;;;5073103;28;20039;-79
2022/06/12 06:09:21;;;;;;;8.63;2.95;;;;;;;;;;5073336;28;20393;-79
2022/06/12 06:11:47;;;;;;;8.30;2.90;;;;;;;;;;5072925;28;20027;-77
2022/06/12 06:14:14;;;;;;;9.55;2.85;;;;;;;;;;5071692;28;20025;-76
2022/06/12 06:16:42;;;;;;;7.82;2.90;;;;;;;;;;5070071;28;20027;-76
2022/06/12 06:19:09;;;;;;;9.80;3.25;;;;;;;;;;5071125;28;20028;-76
2022/06/12 06:21:35;;;;;;;11.80;3.65;;;;;;;;;;5070933;28;20031;-76
2022/06/12 06:24:01;;;;;;;10.35;3.55;;;;;;;;;;5069896;28;20032;-76
2022/06/12 06:26:27;;;;;;;9.65;2.70;;;;;;;;;;5071012;28;20052;-76
2022/06/12 06:28:56;;;;;;;11.40;3.58;;;;;;;;;;5069147;28;20051;-77
2022/06/12 06:31:23;;;;;;;13.18;3.63;;;;;;;;;;5073061;28;20035;-76
2022/06/12 06:33:49;;;;;;;10.25;3.40;;;;;;;;;;5070908;28;20191;-76
2022/06/12 06:36:16;;;;;;;10.30;2.85;;;;;;;;;;5072155;28;20063;-76
2022/06/12 06:38:43;;;;;;;8.55;2.60;;;;;;;;;;5070772;28;20036;-76
2022/06/12 06:41:09;;;;;;;7.68;2.55;;;;;;;;;;5070356;28;20047;-77
2022/06/12 06:46:13;;;;;;;6.90;2.53;;;;;;;;;;5072202;28;20063;-76
2022/06/12 06:46:21;;;;;;;5.90;2.20;;;;;;;;;;5071786;28;20033;-76
2022/06/12 06:48:47;;;;;;;9.00;3.05;;;;;;;;;;5072138;28;20520;-76
2022/06/12 06:51:14;;;;;;;9.45;2.83;;;;;;;;;;5070023;28;20044;-77
2022/06/12 06:53:39;;;;;;;8.07;2.38;;;;;;;;;;5071986;28;20035;-77
2022/06/12 06:56:06;;;;;;;8.73;2.78;;;;;;;;;;5070029;28;20119;-75
2022/06/12 06:58:32;;;;;;;7.47;2.60;;;;;;;;;;5072575;28;20032;-76
2022/06/12 07:00:58;;;;;;;7.82;2.70;;;;;;;;;;5072017;28;20020;-76
2022/06/12 07:03:24;;;;;;;7.70;2.80;;;;;;;;;;5072035;28;20100;-76
2022/06/12 07:05:52;;;;;;;6.13;2.60;;;;;;;;;;5071341;28;20039;-76
2022/06/12 07:08:19;;;;;;;7.45;2.60;;;;;;;;;;5071556;28;20039;-76
2022/06/12 07:10:46;;;;;;;8.85;2.92;;;;;;;;;;5070058;28;20039;-77
2022/06/12 07:13:12;;;;;;;9.07;3.13;;;;;;;;;;5071713;28;20028;-77
2022/06/12 07:15:39;;;;;;;7.57;2.40;;;;;;;;;;5071753;28;20488;-77
2022/06/12 07:18:06;;;;;;;11.32;3.13;;;;;;;;;;5071859;28;20032;-76
2022/06/12 07:20:36;;;;;;;12.93;3.15;;;;;;;;;;5071634;28;20039;-78
2022/06/12 07:23:03;;;;;;;13.80;2.85;;;;;;;;;;5062251;28;20036;-84
2022/06/12 07:25:32;;;;;;;9.07;2.72;;;;;;;;;;5078850;28;20032;-78
2022/06/12 07:28:00;;;;;;;12.48;3.08;;;;;;;;;;5079777;28;20664;-78
2022/06/12 07:30:26;;;;;;;8.70;2.95;;;;;;;;;;5081362;28;20038;-78
2022/06/12 07:32:52;;;;;;;8.68;2.53;;;;;;;;;;5077402;28;20062;-82
2022/06/12 07:35:19;;;;;;;6.72;2.40;;;;;;;;;;5076451;28;20523;-78
2022/06/12 07:37:46;;;;;;;6.47;2.40;;;;;;;;;;5066997;28;20047;-78
2022/06/12 07:40:18;;;;;;;8.93;2.85;;;;;;;;;;5069555;28;20028;-79
2022/06/12 07:42:44;;;;;;;13.38;3.17;;;;;;;;;;5068014;28;20077;-77
2022/06/12 07:45:10;;;;;;;14.43;3.30;;;;;;;;;;5063852;28;20041;-77
2022/06/12 07:47:36;;;;;;;10.70;2.78;;;;;;;;;;5055850;28;20036;-76
2022/06/12 07:50:03;;;;;;;7.50;2.92;;;;;;;;;;5059413;28;20041;-76
2022/06/12 07:52:30;;;;;;;9.95;3.17;;;;;;;;;;5066722;28;20025;-76
2022/06/12 07:54:56;;;;;;;9.23;2.90;;;;;;;;;;5078056;28;20042;-77
2022/06/12 07:57:23;;;;;;;6.40;2.78;;;;;;;;;;5076288;28;20066;-77
2022/06/12 07:59:49;;;;;;;6.40;2.60;;;;;;;;;;5064332;28;20036;-79
2022/06/12 08:02:15;;;;;;;5.32;2.10;;;;;;;;;;5063995;28;20028;-78
2022/06/12 08:04:41;;;;;;;7.03;2.30;;;;;;;;;;5069813;28;20040;-77
2022/06/12 08:07:07;;;;;;;8.15;2.60;;;;;;;;;;5071203;28;20031;-79
2022/06/12 08:09:33;;;;;;;9.52;2.85;;;;;;;;;;5056304;28;20025;-82
2022/06/12 08:11:59;;;;;;;8.10;2.53;;;;;;;;;;5076298;28;20035;-81
2022/06/12 08:14:25;;;;;;;9.10;2.50;;;;;;;;;;5061403;28;20040;-82
2022/06/12 08:16:52;;;;;;;9.65;2.85;;;;;;;;;;5078919;28;20051;-83
2022/06/12 08:22:06;;;;;;;6.97;2.50;;;;;;;;;;5073799;28;20036;-77
2022/06/12 08:24:32;;;;;;;7.55;2.30;;;;;;;;;;5070841;28;20028;-76
2022/06/12 08:26:58;;;;;;;6.38;2.30;;;;;;;;;;5070175;28;20028;-78
2022/06/12 08:29:25;;;;;;;7.38;2.58;;;;;;;;;;5069617;28;20512;-78
2022/06/12 08:31:57;;;;;;;9.75;2.17;;;;;;;;;;5050474;28;20389;-78
2022/06/12 08:34:34;;;;;;;7.82;2.55;;;;;;;;;;5051271;28;20060;-77
2022/06/12 08:37:32;;;;;;;6.95;2.50;;;;;;;;;;5050179;28;20032;-77
2022/06/12 08:39:59;;;;;;;10.00;2.33;;;;;;;;;;5043683;28;20045;-77
2022/06/12 08:42:36;;;;;;;8.57;2.60;;;;;;;;;;5050019;28;20031;-80
2022/06/12 08:45:11;;;;;;;7.18;2.30;;;;;;;;;;5050041;28;20029;-77
